Time;durP1;ratioP1;P1;durP2;ratioP2;P2;SDS_P1;SDS_P2;PMS_P1;PMS_P2;Temp;Humidity;BMP_temperature;BMP_pressure;BME280_temperature;BME280_humidity;BME280_pressure;Samples;Min_cycle;Max_cycle;Signal;HPM_P1;HPM_P2
2022/05/08 00:00:24;;;;;;;;;13.00;10.67;;;;;19.53;49.93;101952.59;5048528;28;45418;-72
2022/05/08 00:03:02;;;;;;;;;18.33;16.67;;;;;19.32;50.20;101924.56;5047457;28;45619;-71
2022/05/08 00:05:29;;;;;;;;;15.33;15.00;;;;;19.45;50.38;101946.50;5038997;28;47627;-69
2022/05/08 00:07:55;;;;;;;;;19.00;17.67;;;;;19.31;50.51;101946.72;5037696;28;45536;-71
2022/05/08 00:10:21;;;;;;;;;17.67;17.67;;;;;19.22;50.79;101944.19;5040900;28;45508;-69
2022/05/08 00:12:48;;;;;;;;;16.67;16.67;;;;;19.13;51.14;101941.69;5046003;28;45460;-70
2022/05/08 00:15:13;;;;;;;;;19.33;16.00;;;;;19.03;51.04;101928.53;5045619;28;46214;-71
2022/05/08 00:17:44;;;;;;;;;19.33;15.33;;;;;19.11;51.18;101935.53;5046061;28;45294;-70
2022/05/08 00:20:10;;;;;;;;;15.67;14.33;;;;;19.15;50.87;101935.47;5037789;28;45590;-68
2022/05/08 00:22:43;;;;;;;;;19.00;15.67;;;;;19.16;50.74;101936.31;5038144;28;45420;-69
2022/05/08 00:25:09;;;;;;;;;15.00;13.67;;;;;19.22;50.77;101933.56;5037850;28;46265;-72
2022/05/08 00:27:34;;;;;;;;;14.67;14.00;;;;;19.24;50.63;101931.78;5038102;28;45329;-70
2022/05/08 00:30:01;;;;;;;;;15.67;15.33;;;;;19.22;50.67;101922.94;5038254;28;45684;-72
2022/05/08 00:32:51;;;;;;;;;16.33;16.33;;;;;19.07;50.52;101898.38;5020173;28;45567;-71
2022/05/08 00:35:17;;;;;;;;;15.00;13.67;;;;;19.26;50.54;101924.66;5037861;28;46550;-69
2022/05/08 00:37:42;;;;;;;;;18.33;13.67;;;;;19.18;50.64;101916.81;5019959;28;45434;-69
2022/05/08 00:40:09;;;;;;;;;17.00;13.67;;;;;19.20;50.73;101922.97;5037919;28;45440;-72
2022/05/08 00:42:47;;;;;;;;;15.33;15.33;;;;;19.26;50.57;101937.94;5036821;28;45545;-71
2022/05/08 00:45:14;;;;;;;;;15.33;13.67;;;;;19.25;50.54;101931.75;5036337;28;46075;-71
2022/05/08 00:47:43;;;;;;;;;14.00;12.67;;;;;19.19;50.67;101923.88;5044246;28;45406;-71
2022/05/08 00:50:09;;;;;;;;;17.33;13.67;;;;;19.13;50.48;101916.00;5046528;28;45408;-72
2022/05/08 00:52:35;;;;;;;;;13.67;12.00;;;;;19.19;50.79;101931.84;5037350;28;45506;-70
2022/05/08 00:55:02;;;;;;;;;13.33;13.33;;;;;19.20;50.68;101933.59;5041301;28;46154;-71
2022/05/08 00:57:28;;;;;;;;;13.00;13.00;;;;;19.20;50.62;101933.59;5056252;28;45290;-72
2022/05/08 00:59:55;;;;;;;;;14.33;13.33;;;;;19.21;50.69;101937.13;5040474;28;45394;-72
2022/05/08 01:02:21;;;;;;;;;15.33;13.67;;;;;19.20;50.78;101932.72;5042690;28;46058;-69
2022/05/08 01:04:46;;;;;;;;;16.00;13.67;;;;;19.07;50.65;101918.75;5042102;28;45591;-69
2022/05/08 01:07:12;;;;;;;;;15.33;12.67;;;;;19.19;50.77;101941.59;5038008;28;45371;-71
2022/05/08 01:09:38;;;;;;;;;16.33;15.33;;;;;19.18;50.78;101937.19;5037402;28;45271;-73
2022/05/08 01:12:03;;;;;;;;;14.00;13.33;;;;;19.13;50.84;101937.25;5037299;28;45224;-71
2022/05/08 01:14:29;;;;;;;;;15.33;14.00;;;;;19.11;50.68;101927.56;5036731;28;45561;-72
2022/05/08 01:16:55;;;;;;;;;14.67;12.00;;;;;19.16;50.89;101941.63;5037046;28;45481;-70
2022/05/08 01:19:20;;;;;;;;;15.00;13.33;;;;;19.15;50.79;101937.22;5037056;28;45418;-68
2022/05/08 01:21:46;;;;;;;;;15.33;14.00;;;;;19.09;50.90;101930.22;5037321;28;45401;-70
2022/05/08 01:24:20;;;;;;;;;19.00;14.00;;;;;19.07;50.68;101919.63;5036282;28;45446;-70
2022/05/08 01:26:46;;;;;;;;;13.00;13.00;;;;;19.02;50.79;101912.63;5037133;28;45407;-70
2022/05/08 01:29:12;;;;;;;;;15.00;13.67;;;;;19.07;50.96;101922.25;5019118;28;45362;-69
2022/05/08 01:31:40;;;;;;;;;14.67;14.67;;;;;18.95;50.88;101917.13;5037079;28;45446;-70
2022/05/08 01:34:06;;;;;;;;;14.67;12.67;;;;;18.73;51.19;101879.38;5035340;28;46951;-72
2022/05/08 01:36:32;;;;;;;;;15.33;15.00;;;;;18.97;50.94;101919.78;5036562;28;45473;-68
2022/05/08 01:39:07;;;;;;;;;13.00;13.00;;;;;18.88;50.76;101917.25;5036788;28;45467;-71
2022/05/08 01:41:32;;;;;;;;;16.33;13.33;;;;;18.83;51.18;101912.00;5036423;28;45523;-73
2022/05/08 01:43:58;;;;;;;;;14.33;12.67;;;;;18.94;50.89;101930.44;5038070;28;45447;-70
2022/05/08 01:46:30;;;;;;;;;13.33;13.00;;;;;18.92;51.13;101932.25;5037775;28;45482;-70
2022/05/08 01:48:56;;;;;;;;;14.67;13.00;;;;;18.87;51.08;101929.66;5037332;28;45458;-73
2022/05/08 01:51:23;;;;;;;;;15.00;13.00;;;;;18.89;51.24;101935.81;5037366;28;45387;-70
2022/05/08 01:53:52;;;;;;;;;14.33;12.33;;;;;18.86;51.18;101930.53;5018703;28;46812;-72
2022/05/08 01:56:19;;;;;;;;;14.00;12.33;;;;;18.85;51.30;101926.13;5036750;28;45327;-71
2022/05/08 01:58:47;;;;;;;;;16.67;15.00;;;;;18.67;51.27;101902.44;5040507;28;45453;-69
2022/05/08 02:01:19;;;;;;;;;15.33;14.00;;;;;18.80;51.36;101931.50;5042991;28;45561;-72
2022/05/08 02:03:45;;;;;;;;;15.33;13.33;;;;;18.78;51.36;101932.44;5041211;28;45945;-73
2022/05/08 02:06:11;;;;;;;;;15.33;15.00;;;;;18.69;51.13;101920.09;5040147;28;45445;-72
2022/05/08 02:08:36;;;;;;;;;18.67;15.33;;;;;18.74;51.45;101925.34;5040194;28;45473;-72
2022/05/08 02:11:03;;;;;;;;;14.67;14.67;;;;;18.43;51.55;101878.84;5040338;28;45539;-73
2022/05/08 02:13:28;;;;;;;;;17.00;14.67;;;;;18.61;51.92;101933.47;5039730;28;46266;-72
2022/05/08 02:15:54;;;;;;;;;14.00;14.00;;;;;18.59;51.88;101927.31;5039703;28;45348;-74
2022/05/08 02:18:19;;;;;;;;;23.33;20.67;;;;;18.40;52.28;101928.44;5040188;28;45297;-73
2022/05/08 02:20:45;;;;;;;;;17.33;14.67;;;;;18.38;52.26;101938.19;5039973;28;45358;-74
2022/05/08 02:23:10;;;;;;;;;18.67;16.33;;;;;18.36;52.35;101934.66;5039704;28;45475;-72
2022/05/08 02:25:37;;;;;;;;;24.67;20.33;;;;;18.26;52.56;101933.88;5039872;28;45457;-74
2022/05/08 02:28:09;;;;;;;;;21.33;18.00;;;;;18.05;52.75;101918.22;5039439;28;45340;-70
2022/05/08 02:30:35;;;;;;;;;24.33;23.00;;;;;17.70;53.22;101877.88;5039445;28;45461;-70
2022/05/08 02:33:02;;;;;;;;;20.00;16.00;;;;;17.95;53.45;101942.16;5039345;28;46484;-68
2022/05/08 02:35:28;;;;;;;;;20.33;15.67;;;;;17.99;53.39;101945.66;5039542;28;45438;-69
2022/05/08 02:37:55;;;;;;;;;19.33;15.67;;;;;17.71;53.18;101894.66;5040426;28;45342;-71
2022/05/08 02:40:23;;;;;;;;;19.67;16.67;;;;;18.07;53.02;101949.09;5040207;28;45379;-70
2022/05/08 02:42:58;;;;;;;;;16.33;14.67;;;;;18.06;53.38;101939.41;5022143;28;45395;-71
2022/05/08 02:45:24;;;;;;;;;15.33;15.00;;;;;18.09;53.00;101947.31;5039608;28;45553;-73
2022/05/08 02:47:57;;;;;;;;;16.00;16.00;;;;;17.97;53.13;101916.50;5039874;28;45324;-72
2022/05/08 02:50:24;;;;;;;;;14.33;13.67;;;;;18.15;52.97;101946.38;5040856;28;45391;-69
2022/05/08 02:52:49;;;;;;;;;18.00;15.67;;;;;17.87;52.91;101903.34;5039399;28;45469;-72
2022/05/08 03:00:47;;;;;;;;;20.67;15.33;;;;;18.09;52.93;101946.44;5039885;28;45424;-71
2022/05/08 03:03:15;;;;;;;;;23.67;22.00;;;;;18.08;53.06;101949.97;5039053;28;45389;-70
2022/05/08 03:05:47;;;;;;;;;20.33;15.33;;;;;17.99;53.20;101945.66;5038979;28;45331;-70
2022/05/08 03:08:15;;;;;;;;;23.67;21.33;;;;;17.87;53.75;101964.31;5039054;28;45487;-74
2022/05/08 03:13:26;;;;;;;;;18.00;17.67;;;;;17.80;53.86;101961.72;5039282;28;46684;-71
2022/05/08 03:15:52;;;;;;;;;18.67;16.33;;;;;17.76;53.71;101944.06;5040664;28;45343;-72
2022/05/08 03:18:39;;;;;;;;;21.33;19.67;;;;;17.80;53.68;101961.72;5041376;28;45391;-70
2022/05/08 03:21:09;;;;;;;;;19.00;19.00;;;;;17.72;53.70;101942.31;5041430;28;45387;-73
2022/05/08 03:23:42;;;;;;;;;19.67;18.67;;;;;17.83;53.73;101959.94;5039979;28;45505;-69
2022/05/08 03:26:08;;;;;;;;;24.67;20.33;;;;;17.71;53.80;101937.03;5040743;28;45434;-72
2022/05/08 03:28:40;;;;;;;;;26.67;23.33;;;;;17.81;53.73;101962.59;5040837;28;45460;-70
2022/05/08 03:34:23;;;;;;;;;29.67;25.33;;;;;17.82;53.87;101963.47;5008656;28;46078;-70
2022/05/08 03:36:49;;;;;;;;;28.00;22.75;;;;;17.83;53.88;101965.25;5038590;28;45346;-70
2022/05/08 03:39:14;;;;;;;;;26.25;25.25;;;;;17.72;54.05;101944.97;5039013;28;45402;-69
2022/05/08 03:41:40;;;;;;;;;29.50;27.75;;;;;17.82;53.87;101961.72;5038768;28;45405;-72
2022/05/08 03:44:06;;;;;;;;;31.50;25.75;;;;;17.82;53.98;101960.81;5020416;28;46646;-70
2022/05/08 03:46:32;;;;;;;;;32.00;27.50;;;;;17.74;54.02;101945.84;5038453;28;45316;-71
2022/05/08 03:48:58;;;;;;;;;27.75;25.75;;;;;17.80;54.06;101960.81;5037391;28;45402;-69
2022/05/08 03:51:23;;;;;;;;;31.25;27.25;;;;;17.71;53.95;101945.00;5038762;28;45496;-71
2022/05/08 03:53:50;;;;;;;;;29.75;27.75;;;;;17.78;53.87;101955.53;5038262;28;46368;-70
2022/05/08 03:56:16;;;;;;;;;31.50;25.75;;;;;17.80;53.89;101961.72;5038541;28;45422;-68
2022/05/08 03:58:42;;;;;;;;;32.75;26.25;;;;;17.65;54.09;101940.59;5037961;28;45334;-69
2022/05/08 04:01:09;;;;;;;;;26.50;24.75;;;;;17.76;54.08;101956.44;5038685;28;45300;-69
2022/05/08 04:03:35;;;;;;;;;37.00;32.00;;;;;17.68;54.34;101959.16;5037444;28;46220;-69
2022/05/08 04:06:03;;;;;;;;;32.50;30.00;;;;;17.42;54.43;101924.91;5038631;28;45470;-70
2022/05/08 04:08:29;;;;;;;;;32.25;27.50;;;;;17.53;54.31;101943.34;5039427;28;45411;-69
2022/05/08 04:10:55;;;;;;;;;36.25;30.25;;;;;17.67;54.31;101967.97;5038779;28;45471;-69
2022/05/08 04:13:20;;;;;;;;;30.25;25.50;;;;;17.67;54.39;101967.09;5037525;28;46205;-69
2022/05/08 04:18:31;;;;;;;;;65.25;51.50;;;;;17.41;55.10;101951.41;5038119;28;45403;-69
2022/05/08 04:20:56;;;;;;;;;61.50;47.25;;;;;17.36;55.33;101941.72;5037081;28;45332;-68
2022/05/08 04:26:10;;;;;;;;;47.25;39.25;;;;;17.20;55.27;101920.66;5040129;28;45399;-70
2022/05/08 04:28:36;;;;;;;;;37.00;31.50;;;;;17.48;55.06;101969.88;5046326;28;45493;-69
2022/05/08 04:31:02;;;;;;;;;38.00;31.75;;;;;17.50;54.94;101968.09;5046627;28;45507;-69
2022/05/08 04:33:39;;;;;;;;;38.00;33.00;;;;;17.46;55.08;101965.47;5057749;28;46009;-69
2022/05/08 04:36:05;;;;;;;;;30.00;30.00;;;;;17.45;54.97;101955.78;5045802;28;45456;-71
2022/05/08 04:38:49;;;;;;;;;39.25;32.50;;;;;17.47;54.97;101961.97;5057300;28;45443;-69
2022/05/08 04:41:16;;;;;;;;;33.50;30.25;;;;;17.51;54.82;101969.88;5043917;28;45369;-70
2022/05/08 04:43:42;;;;;;;;;32.00;29.00;;;;;17.53;54.92;101965.41;5053328;28;46560;-70
2022/05/08 04:46:10;;;;;;;;;34.75;31.25;;;;;17.54;55.11;101969.84;5052092;28;45283;-71
2022/05/08 04:48:35;;;;;;;;;34.25;30.75;;;;;17.50;55.16;101977.81;5055173;28;45528;-69
2022/05/08 04:51:01;;;;;;;;;37.00;32.00;;;;;17.51;55.26;101980.47;5053286;28;45314;-68
2022/05/08 04:53:26;;;;;;;;;32.25;30.25;;;;;17.48;54.91;101980.47;5037924;28;45359;-69
2022/05/08 04:55:52;;;;;;;;;38.25;31.75;;;;;17.50;55.09;101985.78;5039058;28;45408;-70
2022/05/08 04:58:17;;;;;;;;;31.25;29.50;;;;;17.51;55.24;101983.13;5057211;28;45335;-71
2022/05/08 05:00:44;;;;;;;;;42.00;34.00;;;;;17.47;55.13;101983.16;5042995;28;45595;-71
2022/05/08 05:03:09;;;;;;;;;40.00;34.25;;;;;17.46;55.20;101995.50;5053057;28;45410;-73
2022/05/08 05:05:35;;;;;;;;;41.00;33.00;;;;;17.48;55.08;101998.13;5036026;28;45373;-71
2022/05/08 05:08:01;;;;;;;;;40.25;34.25;;;;;17.42;55.29;102003.50;5036384;28;45474;-69
2022/05/08 05:10:27;;;;;;;;;39.50;34.25;;;;;17.46;55.33;102002.56;5036487;28;45272;-70
2022/05/08 05:12:53;;;;;;;;;37.25;33.25;;;;;17.43;55.30;102000.81;5036008;28;46430;-72
2022/05/08 05:15:19;;;;;;;;;37.50;33.00;;;;;17.48;55.28;102006.97;5035878;28;45779;-72
2022/05/08 05:17:44;;;;;;;;;35.50;32.00;;;;;17.48;55.33;102014.03;5044354;28;45441;-72
2022/05/08 05:20:10;;;;;;;;;38.50;31.75;;;;;17.47;55.20;102013.16;5054490;28;45456;-71
2022/05/08 05:22:36;;;;;;;;;41.50;33.50;;;;;17.46;55.25;102024.63;5055672;28;45890;-71
2022/05/08 05:25:13;;;;;;;;;41.00;35.75;;;;;17.45;55.00;102012.28;5035866;28;45474;-70
2022/05/08 05:27:39;;;;;;;;;39.00;33.25;;;;;17.44;55.38;102012.28;5050360;28;45410;-69
2022/05/08 05:30:05;;;;;;;;;39.25;31.50;;;;;17.27;55.44;101999.16;5042677;28;45448;-69
2022/05/08 05:32:31;;;;;;;;;44.50;35.25;;;;;17.40;55.61;102026.47;5038994;28;45307;-70
2022/05/08 05:34:57;;;;;;;;;36.75;31.75;;;;;17.40;55.42;102031.75;5036954;28;45466;-70
2022/05/08 05:37:23;;;;;;;;;37.75;31.50;;;;;17.44;55.59;102031.72;5037099;28;45483;-70
2022/05/08 05:39:48;;;;;;;;;43.00;35.50;;;;;17.49;55.21;102042.31;5037123;28;45379;-69
2022/05/08 05:42:21;;;;;;;;;25.25;25.25;;;;;17.44;55.23;102018.47;5042435;28;46571;-71
2022/05/08 05:44:47;;;;;;;;;48.50;36.00;;;;;17.48;55.54;102040.53;5056123;28;45477;-71
2022/05/08 05:49:56;;;;;;;;;46.00;35.75;;;;;17.46;55.60;102042.28;5056975;28;45493;-70
2022/05/08 05:52:22;;;;;;;;;39.00;32.50;;;;;17.49;55.40;102040.53;5055990;28;46657;-72
2022/05/08 05:54:47;;;;;;;;;38.75;32.50;;;;;17.48;55.34;102035.22;5056029;28;45525;-68
2022/05/08 05:57:13;;;;;;;;;41.75;34.50;;;;;17.45;55.59;102041.41;5056340;28;45395;-69
2022/05/08 05:59:38;;;;;;;;;35.75;32.25;;;;;17.50;55.66;102044.03;5056391;28;45567;-71
2022/05/08 06:02:04;;;;;;;;;48.50;35.75;;;;;17.36;55.72;102039.69;5056396;28;45693;-70
2022/05/08 06:04:29;;;;;;;;;49.25;39.25;;;;;17.34;55.75;102045.88;5057022;28;45314;-74
2022/05/08 06:06:55;;;;;;;;;42.00;34.75;;;;;17.36;55.77;102046.75;5056577;28;45502;-70
2022/05/08 06:09:21;;;;;;;;;38.50;31.75;;;;;17.38;56.07;102045.00;5056601;28;45512;-75
2022/05/08 06:11:46;;;;;;;;;42.25;31.50;;;;;17.44;55.86;102058.22;5056151;28;46012;-74
2022/05/08 06:14:12;;;;;;;;;47.75;35.25;;;;;17.48;55.82;102056.41;5056008;28;45391;-73
2022/05/08 06:16:37;;;;;;;;;42.50;34.50;;;;;17.44;55.61;102036.13;5056275;28;45327;-72
2022/05/08 06:19:04;;;;;;;;;42.00;33.25;;;;;17.47;55.76;102036.13;5056786;28;45395;-71
2022/05/08 06:21:29;;;;;;;;;42.25;34.25;;;;;17.56;55.63;102054.63;5056525;28;46233;-72
2022/05/08 06:23:55;;;;;;;;;36.25;33.25;;;;;17.54;55.50;102049.31;5056280;28;45413;-72
2022/05/08 06:26:21;;;;;;;;;34.25;32.00;;;;;17.62;55.43;102065.16;5054964;28;45348;-73
2022/05/08 06:28:49;;;;;;;;;40.75;32.00;;;;;17.50;55.28;102036.97;5056375;28;45358;-73
2022/05/08 06:31:17;;;;;;;;;42.00;33.75;;;;;17.56;55.41;102050.19;5055936;28;45400;-74
2022/05/08 06:33:46;;;;;;;;;36.50;32.00;;;;;17.65;55.42;102065.13;5055684;28;45360;-71
2022/05/08 06:36:13;;;;;;;;;45.75;34.00;;;;;17.60;55.33;102054.56;5056015;28;45504;-72
2022/05/08 06:38:38;;;;;;;;;41.25;32.00;;;;;17.54;55.04;102046.66;5056131;28;45395;-72
2022/05/08 06:41:04;;;;;;;;;38.50;31.75;;;;;17.64;55.26;102059.84;5055718;28;45907;-72
2022/05/08 06:43:30;;;;;;;;;31.75;29.50;;;;;17.67;55.10;102060.69;5056327;28;45282;-72
2022/05/08 06:45:55;;;;;;;;;38.25;33.75;;;;;17.53;55.39;102052.84;5058130;28;45305;-71
2022/05/08 06:48:32;;;;;;;;;42.25;34.50;;;;;17.63;55.45;102061.63;5057994;28;45595;-72
2022/05/08 06:50:57;;;;;;;;;42.25;33.25;;;;;17.46;55.43;102051.13;5059185;28;46359;-72
2022/05/08 06:53:23;;;;;;;;;30.75;25.75;;;;;17.58;55.45;102071.34;5059030;28;45488;-71
2022/05/08 06:55:48;;;;;;;;;38.25;29.75;;;;;17.52;55.71;102061.69;5059340;28;45407;-73
2022/05/08 06:58:14;;;;;;;;;46.75;34.50;;;;;17.59;55.41;102073.13;5058060;28;45472;-73
2022/05/08 07:03:24;;;;;;;;;39.00;31.00;;;;;17.62;55.21;102075.75;5059095;28;45653;-71
2022/05/08 07:05:49;;;;;;;;;31.75;31.00;;;;;17.60;55.23;102073.09;5058802;28;45464;-72
2022/05/08 07:08:17;;;;;;;;;28.25;25.00;;;;;17.61;55.33;102074.00;5053705;28;46287;-74
2022/05/08 07:10:43;;;;;;;;;37.25;32.50;;;;;17.70;55.10;102081.00;5039202;28;45505;-73
2022/05/08 07:13:09;;;;;;;;;30.75;28.50;;;;;17.71;55.21;102091.59;5054562;28;45463;-73
2022/05/08 07:15:36;;;;;;;;;41.50;32.50;;;;;17.70;55.25;102087.22;5057758;28;45628;-71
2022/05/08 07:18:01;;;;;;;;;39.00;30.50;;;;;17.47;55.24;102052.03;5056212;28;45414;-73
2022/05/08 07:20:27;;;;;;;;;40.00;33.00;;;;;17.68;55.18;102078.38;5058572;28;45454;-73
2022/05/08 07:22:52;;;;;;;;;46.50;36.75;;;;;17.56;55.49;102075.81;5058525;28;45335;-72
2022/05/08 07:25:18;;;;;;;;;49.50;38.00;;;;;17.54;55.75;102091.69;5059085;28;45444;-73
2022/05/08 07:27:47;;;;;;;;;47.00;37.00;;;;;17.23;56.27;102082.16;5041551;28;45585;-71
2022/05/08 07:30:13;;;;;;;;;44.50;35.25;;;;;17.27;56.46;102099.75;5040650;28;46603;-72
2022/05/08 07:32:39;;;;;;;;;41.75;34.75;;;;;17.25;56.14;102105.09;5059414;28;45489;-71
2022/05/08 07:37:49;;;;;;;;;28.75;25.00;;;;;17.31;56.25;102099.75;5053578;28;45691;-70
2022/05/08 07:40:15;;;;;;;;;27.00;23.00;;;;;17.24;56.46;102081.25;5052279;28;45582;-72
2022/05/08 07:42:40;;;;;;;;;35.50;28.75;;;;;17.48;56.69;102104.09;5038134;28;45500;-70
2022/05/08 07:45:06;;;;;;;;;30.75;24.00;;;;;17.56;56.14;102097.00;5038280;28;45467;-70
2022/05/08 07:47:32;;;;;;;;;25.75;23.00;;;;;17.59;55.90;102083.72;5038153;28;45586;-70
2022/05/08 07:49:58;;;;;;;;;30.75;25.25;;;;;17.80;55.87;102098.63;5038319;28;45946;-70
2022/05/08 07:52:23;;;;;;;;;30.75;27.50;;;;;17.94;55.43;102112.69;5038271;28;45270;-69
2022/05/08 07:54:49;;;;;;;;;34.75;28.50;;;;;18.03;55.11;102111.72;5038288;28;45367;-70
2022/05/08 07:57:15;;;;;;;;;31.25;26.00;;;;;18.11;54.77;102107.28;5038167;28;45352;-69
2022/05/08 07:59:41;;;;;;;;;36.50;29.00;;;;;17.99;55.19;102100.28;5038592;28;45478;-69
2022/05/08 08:02:07;;;;;;;;;39.00;34.00;;;;;18.16;54.72;102116.06;5039240;28;45442;-70
2022/05/08 08:04:34;;;;;;;;;33.50;29.00;;;;;18.23;54.63;102112.47;5039456;28;45310;-69
2022/05/08 08:07:00;;;;;;;;;38.00;30.50;;;;;18.30;54.67;102110.66;5038957;28;45612;-71
2022/05/08 08:09:26;;;;;;;;;39.25;31.25;;;;;18.32;54.48;102110.63;5038655;28;45289;-70
2022/05/08 08:11:53;;;;;;;;;34.00;31.00;;;;;18.33;54.45;102107.09;5038633;28;45383;-69
2022/05/08 08:14:20;;;;;;;;;33.75;31.25;;;;;18.45;54.33;102112.28;5039059;28;45455;-69
2022/05/08 08:16:46;;;;;;;;;37.00;29.25;;;;;18.37;53.85;102108.84;5039256;28;45514;-68
2022/05/08 08:19:11;;;;;;;;;32.00;27.75;;;;;18.50;54.10;102110.47;5038888;28;45408;-68
2022/05/08 08:21:37;;;;;;;;;33.50;28.50;;;;;18.55;53.61;102115.75;5039340;28;45390;-70
2022/05/08 08:24:02;;;;;;;;;34.25;29.75;;;;;18.64;53.44;102113.88;5021100;28;45604;-69
2022/05/08 08:26:28;;;;;;;;;33.67;29.33;;;;;18.59;53.59;102118.34;5039170;28;45545;-71
2022/05/08 08:28:53;;;;;;;;;37.00;27.75;;;;;18.59;53.59;102113.03;5038723;28;45992;-72
2022/05/08 08:31:19;;;;;;;;;33.00;29.00;;;;;18.55;53.55;102086.56;5037321;28;45422;-68
2022/05/08 08:33:45;;;;;;;;;42.25;35.25;;;;;18.63;53.29;102112.13;5038892;28;45517;-72
2022/05/08 08:36:11;;;;;;;;;40.75;31.50;;;;;18.71;53.36;102121.78;5039280;28;45323;-74
2022/05/08 08:38:38;;;;;;;;;39.00;31.75;;;;;18.72;53.31;102110.28;5038202;28;46117;-70
2022/05/08 08:41:04;;;;;;;;;28.67;27.33;;;;;18.74;52.82;102101.41;5037329;28;45361;-68
2022/05/08 08:49:01;;;;;;;;;42.25;33.50;;;;;18.77;52.73;102114.69;5038382;28;45276;-71
2022/05/08 08:51:27;;;;;;;;;37.75;31.00;;;;;18.72;52.93;102116.47;5038096;28;45417;-68
2022/05/08 08:53:55;;;;;;;;;31.50;29.25;;;;;18.65;52.92;102110.34;5037756;28;45451;-72
2022/05/08 08:56:22;;;;;;;;;43.00;34.25;;;;;18.55;52.77;102092.72;5036842;28;45426;-70
2022/05/08 08:58:47;;;;;;;;;43.00;31.25;;;;;18.52;52.93;102084.81;5038163;28;45324;-70
2022/05/08 09:01:16;;;;;;;;;39.25;31.25;;;;;18.78;52.63;102115.56;5038077;28;45374;-71
2022/05/08 09:03:41;;;;;;;;;39.00;32.00;;;;;18.89;52.86;102113.69;5037628;28;45769;-70
2022/05/08 09:06:08;;;;;;;;;41.75;32.00;;;;;18.93;52.49;102117.16;5037006;28;45470;-71
2022/05/08 09:08:37;;;;;;;;;35.50;31.50;;;;;19.00;52.38;102114.41;5037123;28;46656;-72
2022/05/08 09:11:03;;;;;;;;;34.25;30.75;;;;;18.95;52.12;102083.53;5037322;28;45294;-72
2022/05/08 09:13:30;;;;;;;;;34.33;31.33;;;;;18.96;52.26;102088.81;5035912;28;45597;-71
2022/05/08 09:16:07;;;;;;;;;38.75;32.50;;;;;19.20;51.91;102111.56;5037469;28;45483;-70
2022/05/08 09:18:44;;;;;;;;;35.50;31.75;;;;;19.23;51.82;102115.94;5036733;28;45626;-68
2022/05/08 09:24:08;;;;;;;;;37.00;32.50;;;;;19.13;52.07;102093.94;5037132;28;45446;-70
2022/05/08 09:26:33;;;;;;;;;57.25;44.50;;;;;19.29;52.55;102113.19;5019286;28;45557;-69
2022/05/08 09:28:59;;;;;;;;;56.25;43.50;;;;;19.39;52.01;102116.66;5036573;28;45562;-72
2022/05/08 09:31:24;;;;;;;;;54.75;39.75;;;;;19.46;51.80;102113.00;5037135;28;45342;-69
2022/05/08 09:33:52;;;;;;;;;45.50;36.25;;;;;19.48;51.57;102109.44;5036972;28;45522;-74
2022/05/08 09:36:20;;;;;;;;;38.75;33.25;;;;;19.59;51.99;102111.06;5037578;28;45382;-73
2022/05/08 09:38:54;;;;;;;;;43.25;31.75;;;;;19.49;51.81;102097.03;5036771;28;46296;-69
2022/05/08 09:41:26;;;;;;;;;41.75;34.50;;;;;19.67;50.95;102119.78;5041125;28;45508;-76
2022/05/08 09:43:57;;;;;;;;;42.25;33.00;;;;;19.69;51.35;102123.34;5041897;28;45537;-73
2022/05/08 09:46:23;;;;;;;;;37.50;31.00;;;;;19.64;50.95;102104.75;5019316;28;45900;-73
2022/05/08 09:48:49;;;;;;;;;43.50;34.00;;;;;19.55;50.75;102096.03;5036337;28;45489;-74
2022/05/08 09:51:16;;;;;;;;;47.25;35.50;;;;;19.58;50.86;102111.97;5036555;28;45359;-67
2022/05/08 09:53:44;;;;;;;;;35.75;33.50;;;;;19.60;50.99;102110.16;5035964;28;45800;-69
2022/05/08 09:56:11;;;;;;;;;44.25;34.50;;;;;19.62;50.78;102105.69;5037860;28;45524;-71
2022/05/08 09:58:41;;;;;;;;;39.25;32.50;;;;;19.63;50.61;102104.81;5036643;28;46130;-70
2022/05/08 10:01:07;;;;;;;;;44.50;34.00;;;;;19.66;50.60;102100.31;5055810;28;45334;-72
2022/05/08 10:03:33;;;;;;;;;43.50;35.25;;;;;19.75;50.69;102095.81;5057003;28;45509;-69
2022/05/08 10:06:06;;;;;;;;;38.00;31.67;;;;;19.70;50.70;102082.59;5056952;28;45385;-70
2022/05/08 10:08:39;;;;;;;;;38.00;30.75;;;;;19.63;50.31;102068.47;5057154;28;46062;-69
2022/05/08 10:13:53;;;;;;;;;39.75;33.75;;;;;19.75;50.39;102077.22;5056492;28;45342;-74
2022/05/08 10:16:47;;;;;;;;;35.67;30.33;;;;;20.05;50.16;102097.09;5043174;28;45491;-71
2022/05/08 10:19:22;;;;;;;;;36.00;33.75;;;;;20.18;49.88;102092.50;5061278;28;45536;-71
2022/05/08 10:22:06;;;;;;;;;45.25;33.00;;;;;20.29;49.52;102098.53;5060448;28;45298;-73
2022/05/08 10:24:36;;;;;;;;;35.25;31.00;;;;;20.37;49.23;102091.25;5059158;28;45412;-72
2022/05/08 10:27:10;;;;;;;;;36.00;32.25;;;;;20.49;49.18;102087.50;5060433;28;45398;-72
2022/05/08 10:29:39;;;;;;;;;32.67;30.33;;;;;20.61;48.86;102097.09;5059941;28;45457;-72
2022/05/08 10:32:10;;;;;;;;;34.67;30.67;;;;;20.69;48.67;102089.84;5058592;28;45467;-75
2022/05/08 10:34:40;;;;;;;;;35.00;31.67;;;;;20.81;48.29;102089.63;5059878;28;45428;-74
2022/05/08 10:37:12;;;;;;;;;34.00;29.67;;;;;20.83;48.33;102085.13;5041958;28;45303;-72
2022/05/08 10:39:41;;;;;;;;;41.00;33.00;;;;;20.76;47.90;102054.19;5058367;28;47912;-73
2022/05/08 10:42:29;;;;;;;;;36.67;33.33;;;;;21.02;48.09;102093.63;5059863;28;45355;-72
2022/05/08 10:44:56;;;;;;;;;37.33;31.33;;;;;21.02;47.73;102079.44;5060303;28;45343;-75
2022/05/08 10:47:36;;;;;;;;;42.33;33.33;;;;;21.09;47.64;102081.94;5059944;28;45359;-73
2022/05/08 10:50:09;;;;;;;;;37.00;31.33;;;;;21.14;47.49;102082.75;5060101;28;46328;-74
2022/05/08 10:52:42;;;;;;;;;41.67;33.67;;;;;21.20;47.68;102083.53;5059830;28;45449;-72
2022/05/08 10:55:14;;;;;;;;;43.33;35.00;;;;;21.21;47.21;102053.28;5059743;28;45423;-71
2022/05/08 10:57:41;;;;;;;;;38.67;30.67;;;;;21.39;47.09;102079.56;5059543;28;46009;-69
2022/05/08 11:00:27;;;;;;;;;40.00;33.33;;;;;21.33;46.56;102066.34;5059290;28;45604;-72
2022/05/08 11:03:19;;;;;;;;;40.00;33.67;;;;;21.50;46.82;102076.69;5059091;28;45271;-70
2022/05/08 11:05:54;;;;;;;;;37.67;32.67;;;;;21.57;46.69;102081.84;5058092;28;45330;-72
2022/05/08 11:08:31;;;;;;;;;43.67;32.67;;;;;21.71;46.29;102075.31;5060122;28;45331;-68
2022/05/08 11:11:06;;;;;;;;;32.67;29.00;;;;;21.84;46.33;102083.91;5060204;28;46220;-70
2022/05/08 11:13:52;;;;;;;;;44.50;35.50;;;;;21.90;45.80;102062.41;5060483;28;45378;-68
2022/05/08 11:16:33;;;;;;;;;46.67;35.33;;;;;22.00;45.64;102069.28;5060574;28;45422;-70
2022/05/08 11:19:00;;;;;;;;;40.33;33.33;;;;;21.80;45.53;102056.44;5060113;28;45599;-69
2022/05/08 11:21:29;;;;;;;;;37.67;31.67;;;;;22.01;45.82;102073.69;5057807;28;47287;-70
2022/05/08 11:24:04;;;;;;;;;53.75;42.25;;;;;21.96;45.14;102052.47;5059231;28;45239;-70
2022/05/08 11:26:32;;;;;;;;;49.75;39.50;;;;;21.93;45.07;102067.69;5041353;28;45350;-71
2022/05/08 11:29:05;;;;;;;;;47.25;37.25;;;;;21.60;45.53;102030.25;5059898;28;45653;-68
2022/05/08 11:31:34;;;;;;;;;41.00;33.67;;;;;21.87;45.72;102063.38;5058901;28;46012;-68
2022/05/08 11:36:46;;;;;;;;;48.75;36.50;;;;;21.90;45.08;102059.75;5060853;28;45860;-70
2022/05/08 11:39:15;;;;;;;;;41.67;36.33;;;;;21.62;45.46;102025.75;5060480;28;45470;-73
2022/05/08 11:41:46;;;;;;;;;29.33;24.67;;;;;21.87;45.52;102047.38;5057463;28;46486;-71
2022/05/08 11:44:15;;;;;;;;;40.33;33.67;;;;;22.12;45.63;102054.78;5058589;28;45495;-70
2022/05/08 11:46:56;;;;;;;;;33.67;30.33;;;;;22.29;45.42;102046.38;5058467;28;45319;-69
2022/05/08 11:49:27;;;;;;;;;30.00;28.33;;;;;22.50;45.12;102055.59;5058922;28;45520;-72
2022/05/08 11:51:55;;;;;;;;;29.00;24.67;;;;;22.63;44.46;102052.53;5060306;28;45524;-73